Brant Lake, New York
Current Conditions -  °F | °C
As of 9:53 AM on Monday 22 Dec 2014 (Local Time) from KGFL Reporting Station
Haze Haze  
Wind Chill: 24°   Ceiling: 3800
Heat Index: 29°   Visibility: 5mi
Dew Point: 24°   Wind: 5mph
Humidity: 82%   Direction: 80°E
Pressure: 30.36"   Gusts: NA
Location:  43.68°N, 73.75°W
Report Text: KGFL 221453Z AUTO 08004KT 5SM HZ OVC038 M02/M04 A3036 RMK AO2 SLP291 T10171044 55000
Loading
Personal Weather Stations






























Interactive Weather Map New forecast layout! Learn more

10-Day Weather Forecast

Advertisements
Track Severe Weather on mobile